sensor_id;sensor_type;location;lat;lon;timestamp;pressure;altitude;pressure_sealevel;temperature;humidity
45541;BME280;31265;49.680;8.608;2023-02-12T00:01:07;102691.97;;;3.66;100.00
45541;BME280;31265;49.680;8.608;2023-02-12T00:03:36;102686.81;;;3.69;100.00
45541;BME280;31265;49.680;8.608;2023-02-12T00:06:06;102694.72;;;3.66;100.00
45541;BME280;31265;49.680;8.608;2023-02-12T00:08:34;102697.16;;;3.64;100.00
45541;BME280;31265;49.680;8.608;2023-02-12T00:11:09;102698.22;;;3.67;100.00
45541;BME280;31265;49.680;8.608;2023-02-12T00:13:38;102693.06;;;3.69;100.00
45541;BME280;31265;49.680;8.608;2023-02-12T00:16:07;102693.66;;;3.73;100.00
45541;BME280;31265;49.680;8.608;2023-02-12T00:18:37;102684.53;;;3.76;100.00
45541;BME280;31265;49.680;8.608;2023-02-12T00:21:06;102686.34;;;3.79;100.00
45541;BME280;31265;49.680;8.608;2023-02-12T00:23:35;102683.91;;;3.81;100.00
45541;BME280;31265;49.680;8.608;2023-02-12T00:26:05;102686.97;;;3.83;100.00
45541;BME280;31265;49.680;8.608;2023-02-12T00:28:35;102689.22;;;3.85;100.00
45541;BME280;31265;49.680;8.608;2023-02-12T00:31:04;102681.94;;;3.91;100.00
45541;BME280;31265;49.680;8.608;2023-02-12T00:33:33;102687.56;;;3.97;100.00
45541;BME280;31265;49.680;8.608;2023-02-12T00:36:02;102685.56;;;3.97;100.00
45541;BME280;31265;49.680;8.608;2023-02-12T00:38:31;102685.75;;;3.94;100.00
45541;BME280;31265;49.680;8.608;2023-02-12T00:40:59;102690.00;;;3.95;100.00
45541;BME280;31265;49.680;8.608;2023-02-12T00:43:28;102700.69;;;3.93;100.00
45541;BME280;31265;49.680;8.608;2023-02-12T00:45:58;102685.44;;;3.92;100.00
45541;BME280;31265;49.680;8.608;2023-02-12T00:48:26;102697.63;;;3.91;100.00
45541;BME280;31265;49.680;8.608;2023-02-12T00:50:54;102688.19;;;3.92;100.00
45541;BME280;31265;49.680;8.608;2023-02-12T00:53:23;102692.91;;;3.91;100.00
45541;BME280;31265;49.680;8.608;2023-02-12T00:55:51;102697.94;;;3.93;100.00
45541;BME280;31265;49.680;8.608;2023-02-12T00:58:20;102693.97;;;3.94;100.00
45541;BME280;31265;49.680;8.608;2023-02-12T01:00:49;102695.97;;;3.93;100.00
45541;BME280;31265;49.680;8.608;2023-02-12T01:03:19;102698.25;;;3.95;100.00
45541;BME280;31265;49.680;8.608;2023-02-12T01:05:47;102702.53;;;3.96;100.00
45541;BME280;31265;49.680;8.608;2023-02-12T01:08:19;102704.81;;;3.97;100.00
45541;BME280;31265;49.680;8.608;2023-02-12T01:10:54;102703.59;;;3.98;100.00
45541;BME280;31265;49.680;8.608;2023-02-12T01:13:23;102702.81;;;3.98;100.00
45541;BME280;31265;49.680;8.608;2023-02-12T01:16:04;102702.81;;;3.98;100.00
45541;BME280;31265;49.680;8.608;2023-02-12T01:18:37;102694.88;;;4.00;100.00
45541;BME280;31265;49.680;8.608;2023-02-12T01:21:10;102698.09;;;3.98;100.00
45541;BME280;31265;49.680;8.608;2023-02-12T01:23:41;102697.31;;;3.98;100.00
45541;BME280;31265;49.680;8.608;2023-02-12T01:26:11;102701.28;;;3.97;100.00
45541;BME280;31265;49.680;8.608;2023-02-12T01:28:42;102697.31;;;3.98;100.00
45541;BME280;31265;49.680;8.608;2023-02-12T01:31:13;102693.81;;;3.97;100.00
45541;BME280;31265;49.680;8.608;2023-02-12T01:33:46;102696.41;;;4.01;100.00
45541;BME280;31265;49.680;8.608;2023-02-12T01:36:15;102697.19;;;4.01;100.00
45541;BME280;31265;49.680;8.608;2023-02-12T01:38:46;102691.69;;;4.01;100.00
45541;BME280;31265;49.680;8.608;2023-02-12T01:41:17;102695.50;;;4.04;100.00
45541;BME280;31265;49.680;8.608;2023-02-12T01:44:11;102695.50;;;4.04;100.00
45541;BME280;31265;49.680;8.608;2023-02-12T01:46:41;102692.44;;;4.02;100.00
45541;BME280;31265;49.680;8.608;2023-02-12T01:49:16;102694.88;;;4.00;100.00
45541;BME280;31265;49.680;8.608;2023-02-12T01:51:47;102690.13;;;4.00;100.00
45541;BME280;31265;49.680;8.608;2023-02-12T01:54:18;102693.38;;;3.99;100.00
45541;BME280;31265;49.680;8.608;2023-02-12T01:56:47;102695.81;;;3.97;100.00
45541;BME280;31265;49.680;8.608;2023-02-12T01:59:16;102687.25;;;3.95;100.00
45541;BME280;31265;49.680;8.608;2023-02-12T02:01:45;102685.25;;;3.95;100.00
45541;BME280;31265;49.680;8.608;2023-02-12T02:04:19;102688.00;;;3.95;100.00
45541;BME280;31265;49.680;8.608;2023-02-12T02:06:55;102684.50;;;3.95;100.00
45541;BME280;31265;49.680;8.608;2023-02-12T02:09:24;102688.78;;;3.96;100.00
45541;BME280;31265;49.680;8.608;2023-02-12T02:11:54;102683.31;;;3.96;100.00
45541;BME280;31265;49.680;8.608;2023-02-12T02:14:42;102683.31;;;3.96;100.00
45541;BME280;31265;49.680;8.608;2023-02-12T02:17:26;102683.31;;;3.96;100.00
45541;BME280;31265;49.680;8.608;2023-02-12T02:20:34;102671.84;;;3.97;100.00
45541;BME280;31265;49.680;8.608;2023-02-12T02:23:29;102681.63;;;3.98;100.00
45541;BME280;31265;49.680;8.608;2023-02-12T02:26:21;102670.16;;;4.00;100.00
45541;BME280;31265;49.680;8.608;2023-02-12T02:29:07;102678.25;;;4.03;100.00
45541;BME280;31265;49.680;8.608;2023-02-12T02:31:43;102672.59;;;4.07;100.00
45541;BME280;31265;49.680;8.608;2023-02-12T02:34:19;102675.66;;;4.09;100.00
45541;BME280;31265;49.680;8.608;2023-02-12T02:36:58;102678.25;;;4.03;100.00
45541;BME280;31265;49.680;8.608;2023-02-12T02:39:35;102684.97;;;4.02;100.00
45541;BME280;31265;49.680;8.608;2023-02-12T02:42:10;102679.94;;;4.01;100.00
45541;BME280;31265;49.680;8.608;2023-02-12T02:44:47;102685.44;;;4.01;100.00
45541;BME280;31265;49.680;8.608;2023-02-12T02:47:22;102683.91;;;4.00;100.00
45541;BME280;31265;49.680;8.608;2023-02-12T02:49:55;102677.63;;;3.99;100.00
45541;BME280;31265;49.680;8.608;2023-02-12T02:52:29;102677.31;;;3.97;100.00
45541;BME280;31265;49.680;8.608;2023-02-12T02:55:02;102680.06;;;3.97;100.00
45541;BME280;31265;49.680;8.608;2023-02-12T02:57:36;102685.56;;;3.97;100.00
45541;BME280;31265;49.680;8.608;2023-02-12T03:00:11;102691.81;;;3.98;100.00
45541;BME280;31265;49.680;8.608;2023-02-12T03:02:48;102689.38;;;4.00;100.00
45541;BME280;31265;49.680;8.608;2023-02-12T03:05:21;102686.19;;;4.01;100.00
45541;BME280;31265;49.680;8.608;2023-02-12T03:07:55;102686.94;;;4.02;100.00
45541;BME280;31265;49.680;8.608;2023-02-12T03:10:28;102679.16;;;4.00;100.00
45541;BME280;31265;49.680;8.608;2023-02-12T03:13:01;102682.69;;;4.01;100.00
45541;BME280;31265;49.680;8.608;2023-02-12T03:15:37;102677.19;;;4.01;100.00
45541;BME280;31265;49.680;8.608;2023-02-12T03:18:12;102677.63;;;3.99;100.00
45541;BME280;31265;49.680;8.608;2023-02-12T03:20:44;102680.84;;;3.98;100.00
45541;BME280;31265;49.680;8.608;2023-02-12T03:23:17;102680.38;;;3.99;100.00
45541;BME280;31265;49.680;8.608;2023-02-12T03:25:52;102676.13;;;3.98;100.00
45541;BME280;31265;49.680;8.608;2023-02-12T03:28:27;102682.38;;;3.99;100.00
45541;BME280;31265;49.680;8.608;2023-02-12T03:31:04;102682.38;;;3.99;100.00
45541;BME280;31265;49.680;8.608;2023-02-12T03:33:42;102678.88;;;3.98;100.00
45541;BME280;31265;49.680;8.608;2023-02-12T03:36:24;102676.13;;;3.98;100.00
45541;BME280;31265;49.680;8.608;2023-02-12T03:38:56;102681.44;;;4.02;100.00
45541;BME280;31265;49.680;8.608;2023-02-12T03:41:35;102687.72;;;4.02;100.00
45541;BME280;31265;49.680;8.608;2023-02-12T03:44:09;102690.63;;;3.99;100.00
45541;BME280;31265;49.680;8.608;2023-02-12T03:46:44;102689.88;;;3.98;100.00
45541;BME280;31265;49.680;8.608;2023-02-12T03:49:23;102687.13;;;3.98;100.00
45541;BME280;31265;49.680;8.608;2023-02-12T03:51:54;102686.94;;;4.02;100.00
45541;BME280;31265;49.680;8.608;2023-02-12T03:54:27;102678.25;;;4.03;100.00
45541;BME280;31265;49.680;8.608;2023-02-12T03:56:59;102691.06;;;4.06;100.00
45541;BME280;31265;49.680;8.608;2023-02-12T03:59:29;102690.63;;;4.08;100.00
45541;BME280;31265;49.680;8.608;2023-02-12T04:01:59;102685.13;;;4.08;100.00
45541;BME280;31265;49.680;8.608;2023-02-12T04:04:29;102694.13;;;4.08;100.00
45541;BME280;31265;49.680;8.608;2023-02-12T04:06:58;102691.81;;;4.07;100.00
45541;BME280;31265;49.680;8.608;2023-02-12T04:09:27;102683.91;;;4.09;100.00
45541;BME280;31265;49.680;8.608;2023-02-12T04:12:08;102688.63;;;4.08;100.00
45541;BME280;31265;49.680;8.608;2023-02-12T04:14:42;102685.56;;;4.06;100.00
45541;BME280;31265;49.680;8.608;2023-02-12T04:17:21;102688.31;;;4.06;100.00
45541;BME280;31265;49.680;8.608;2023-02-12T04:20:06;102693.06;;;4.06;100.00
45541;BME280;31265;49.680;8.608;2023-02-12T04:22:45;102695.03;;;4.05;100.00
45541;BME280;31265;49.680;8.608;2023-02-12T04:25:21;102696.56;;;4.06;100.00
45541;BME280;31265;49.680;8.608;2023-02-12T04:27:58;102700.06;;;4.07;100.00
45541;BME280;31265;49.680;8.608;2023-02-12T04:30:33;102704.06;;;4.06;100.00
45541;BME280;31265;49.680;8.608;2023-02-12T04:33:05;102711.22;;;4.03;100.00
45541;BME280;31265;49.680;8.608;2023-02-12T04:35:42;102709.53;;;4.06;100.00
45541;BME280;31265;49.680;8.608;2023-02-12T04:38:16;102702.06;;;4.06;100.00
45541;BME280;31265;49.680;8.608;2023-02-12T04:40:48;102706.81;;;4.06;100.00
45541;BME280;31265;49.680;8.608;2023-02-12T04:43:28;102713.50;;;4.05;100.00
45541;BME280;31265;49.680;8.608;2023-02-12T04:45:57;102713.50;;;4.05;100.00
45541;BME280;31265;49.680;8.608;2023-02-12T04:48:25;102718.53;;;4.06;100.00
45541;BME280;31265;49.680;8.608;2023-02-12T04:50:57;102717.78;;;4.06;100.00
45541;BME280;31265;49.680;8.608;2023-02-12T04:53:26;102709.53;;;4.06;100.00
45541;BME280;31265;49.680;8.608;2023-02-12T04:55:54;102717.00;;;4.05;100.00
45541;BME280;31265;49.680;8.608;2023-02-12T04:58:23;102721.28;;;4.06;100.00
45541;BME280;31265;49.680;8.608;2023-02-12T05:00:52;102709.53;;;4.06;100.00
45541;BME280;31265;49.680;8.608;2023-02-12T05:03:20;102704.34;;;4.08;100.00
45541;BME280;31265;49.680;8.608;2023-02-12T05:05:48;102703.88;;;4.09;100.00
45541;BME280;31265;49.680;8.608;2023-02-12T05:08:18;102699.94;;;4.11;100.00
45541;BME280;31265;49.680;8.608;2023-02-12T05:10:47;102697.94;;;4.11;100.00
45541;BME280;31265;49.680;8.608;2023-02-12T05:13:15;102698.06;;;4.07;100.00
45541;BME280;31265;49.680;8.608;2023-02-12T05:15:43;102701.63;;;4.08;100.00
45541;BME280;31265;49.680;8.608;2023-02-12T05:18:14;102695.94;;;4.12;100.00
45541;BME280;31265;49.680;8.608;2023-02-12T05:20:42;102699.31;;;4.06;100.00
45541;BME280;31265;49.680;8.608;2023-02-12T05:23:13;102695.81;;;4.06;100.00
45541;BME280;31265;49.680;8.608;2023-02-12T05:25:44;102688.78;;;4.05;100.00
45541;BME280;31265;49.680;8.608;2023-02-12T05:28:13;102689.38;;;4.09;100.00
45541;BME280;31265;49.680;8.608;2023-02-12T05:30:41;102693.06;;;4.06;100.00
45541;BME280;31265;49.680;8.608;2023-02-12T05:33:11;102701.75;;;4.04;100.00
45541;BME280;31265;49.680;8.608;2023-02-12T05:35:42;102701.91;;;4.01;100.00
45541;BME280;31265;49.680;8.608;2023-02-12T05:38:11;102706.34;;;3.98;100.00
45541;BME280;31265;49.680;8.608;2023-02-12T05:40:40;102703.59;;;3.98;100.00
45541;BME280;31265;49.680;8.608;2023-02-12T05:43:10;102703.59;;;3.98;100.00
45541;BME280;31265;49.680;8.608;2023-02-12T05:45:39;102712.59;;;3.99;100.00
45541;BME280;31265;49.680;8.608;2023-02-12T05:48:11;102707.09;;;3.99;100.00
45541;BME280;31265;49.680;8.608;2023-02-12T05:50:39;102698.88;;;3.99;100.00
45541;BME280;31265;49.680;8.608;2023-02-12T05:53:07;102704.34;;;3.99;100.00
45541;BME280;31265;49.680;8.608;2023-02-12T05:55:36;102705.13;;;3.99;100.00
45541;BME280;31265;49.680;8.608;2023-02-12T05:58:04;102696.69;;;4.03;100.00
45541;BME280;31265;49.680;8.608;2023-02-12T06:00:34;102704.19;;;4.02;100.00
45541;BME280;31265;49.680;8.608;2023-02-12T06:03:02;102691.69;;;4.01;100.00
45541;BME280;31265;49.680;8.608;2023-02-12T06:05:31;102697.94;;;4.02;100.00
45541;BME280;31265;49.680;8.608;2023-02-12T06:08:00;102710.16;;;4.01;100.00
45541;BME280;31265;49.680;8.608;2023-02-12T06:10:31;102708.16;;;4.01;100.00
45541;BME280;31265;49.680;8.608;2023-02-12T06:12:59;102694.44;;;4.01;100.00
45541;BME280;31265;49.680;8.608;2023-02-12T06:15:28;102702.19;;;4.03;100.00
45541;BME280;31265;49.680;8.608;2023-02-12T06:17:58;102701.00;;;4.04;100.00
45541;BME280;31265;49.680;8.608;2023-02-12T06:20:27;102704.06;;;4.06;100.00
45541;BME280;31265;49.680;8.608;2023-02-12T06:22:55;102704.06;;;4.06;100.00
45541;BME280;31265;49.680;8.608;2023-02-12T06:25:24;102713.50;;;4.05;100.00
45541;BME280;31265;49.680;8.608;2023-02-12T06:27:52;102708.00;;;4.05;100.00
45541;BME280;31265;49.680;8.608;2023-02-12T06:30:20;102713.50;;;4.05;100.00
45541;BME280;31265;49.680;8.608;2023-02-12T06:32:49;102710.44;;;4.03;100.00
45541;BME280;31265;49.680;8.608;2023-02-12T06:35:20;102709.53;;;4.06;100.00
45541;BME280;31265;49.680;8.608;2023-02-12T06:37:48;102712.28;;;4.06;100.00
45541;BME280;31265;49.680;8.608;2023-02-12T06:40:17;102718.09;;;4.08;100.00
45541;BME280;31265;49.680;8.608;2023-02-12T06:42:46;102710.91;;;4.11;100.00
45541;BME280;31265;49.680;8.608;2023-02-12T06:45:16;102715.94;;;4.12;100.00
45541;BME280;31265;49.680;8.608;2023-02-12T06:47:45;102721.00;;;4.14;100.00
45541;BME280;31265;49.680;8.608;2023-02-12T06:50:14;102730.31;;;4.16;100.00
45541;BME280;31265;49.680;8.608;2023-02-12T06:52:43;102731.81;;;4.17;100.00
45541;BME280;31265;49.680;8.608;2023-02-12T06:55:12;102730.13;;;4.20;100.00
45541;BME280;31265;49.680;8.608;2023-02-12T06:57:40;102735.50;;;4.23;100.00
45541;BME280;31265;49.680;8.608;2023-02-12T07:00:10;102744.03;;;4.25;100.00
45541;BME280;31265;49.680;8.608;2023-02-12T07:02:38;102740.38;;;4.28;100.00
45541;BME280;31265;49.680;8.608;2023-02-12T07:05:07;102742.94;;;4.32;100.00
45541;BME280;31265;49.680;8.608;2023-02-12T07:07:36;102745.25;;;4.34;100.00
45541;BME280;31265;49.680;8.608;2023-02-12T07:10:08;102755.31;;;4.37;100.00
45541;BME280;31265;49.680;8.608;2023-02-12T07:12:37;102753.63;;;4.39;100.00
45541;BME280;31265;49.680;8.608;2023-02-12T07:15:06;102754.69;;;4.42;100.00
45541;BME280;31265;49.680;8.608;2023-02-12T07:17:34;102748.59;;;4.47;100.00
45541;BME280;31265;49.680;8.608;2023-02-12T07:20:04;102753.47;;;4.52;100.00
45541;BME280;31265;49.680;8.608;2023-02-12T07:22:34;102760.50;;;4.53;100.00
45541;BME280;31265;49.680;8.608;2023-02-12T07:25:03;102763.84;;;4.57;100.00
45541;BME280;31265;49.680;8.608;2023-02-12T07:27:36;102765.22;;;4.62;100.00
45541;BME280;31265;49.680;8.608;2023-02-12T07:30:06;102756.50;;;4.63;100.00
45541;BME280;31265;49.680;8.608;2023-02-12T07:32:34;102760.47;;;4.62;100.00
45541;BME280;31265;49.680;8.608;2023-02-12T07:35:06;102765.06;;;4.65;100.00
45541;BME280;31265;49.680;8.608;2023-02-12T07:37:34;102759.56;;;4.65;100.00
45541;BME280;31265;49.680;8.608;2023-02-12T07:40:05;102759.88;;;4.67;100.00
45541;BME280;31265;49.680;8.608;2023-02-12T07:42:35;102765.66;;;4.69;100.00
45541;BME280;31265;49.680;8.608;2023-02-12T07:45:06;102771.16;;;4.69;100.00
45541;BME280;31265;49.680;8.608;2023-02-12T07:47:35;102768.72;;;4.71;100.00
45541;BME280;31265;49.680;8.608;2023-02-12T07:50:05;102775.56;;;4.76;100.00
45541;BME280;31265;49.680;8.608;2023-02-12T07:52:34;102773.56;;;4.86;100.00
45541;BME280;31265;49.680;8.608;2023-02-12T07:55:02;102766.84;;;4.87;100.00
45541;BME280;31265;49.680;8.608;2023-02-12T07:57:33;102769.31;;;4.85;100.00
45541;BME280;31265;49.680;8.608;2023-02-12T08:00:03;102777.56;;;4.85;100.00
45541;BME280;31265;49.680;8.608;2023-02-12T08:02:38;102777.38;;;4.88;100.00
45541;BME280;31265;49.680;8.608;2023-02-12T08:05:06;102785.94;;;4.90;100.00
45541;BME280;31265;49.680;8.608;2023-02-12T08:07:35;102782.72;;;4.92;100.00
45541;BME280;31265;49.680;8.608;2023-02-12T08:10:05;102782.44;;;4.90;100.00
45541;BME280;31265;49.680;8.608;2023-02-12T08:12:34;102782.13;;;4.97;100.00
45541;BME280;31265;49.680;8.608;2023-02-12T08:15:04;102784.69;;;5.01;100.00
45541;BME280;31265;49.680;8.608;2023-02-12T08:17:33;102787.25;;;5.04;100.00
45541;BME280;31265;49.680;8.608;2023-02-12T08:20:02;102779.91;;;5.10;100.00
45541;BME280;31265;49.680;8.608;2023-02-12T08:22:30;102780.03;;;5.16;100.00
45541;BME280;31265;49.680;8.608;2023-02-12T08:24:58;102786.63;;;5.09;100.00
45541;BME280;31265;49.680;8.608;2023-02-12T08:27:27;102782.66;;;5.10;100.00
45541;BME280;31265;49.680;8.608;2023-02-12T08:29:56;102788.19;;;5.10;100.00
45541;BME280;31265;49.680;8.608;2023-02-12T08:32:25;102797.31;;;5.16;100.00
45541;BME280;31265;49.680;8.608;2023-02-12T08:34:55;102797.78;;;5.24;100.00
45541;BME280;31265;49.680;8.608;2023-02-12T08:37:23;102795.91;;;5.30;100.00
45541;BME280;31265;49.680;8.608;2023-02-12T08:39:52;102800.31;;;5.37;100.00
45541;BME280;31265;49.680;8.608;2023-02-12T08:42:20;102802.44;;;5.42;100.00
45541;BME280;31265;49.680;8.608;2023-02-12T08:44:52;102802.25;;;5.46;100.00
45541;BME280;31265;49.680;8.608;2023-02-12T08:47:21;102798.69;;;5.54;100.00
45541;BME280;31265;49.680;8.608;2023-02-12T08:49:51;102804.53;;;5.47;100.00
45541;BME280;31265;49.680;8.608;2023-02-12T08:52:21;102799.13;;;5.62;100.00
45541;BME280;31265;49.680;8.608;2023-02-12T08:54:51;102807.34;;;5.71;100.00
45541;BME280;31265;49.680;8.608;2023-02-12T08:57:19;102802.41;;;5.75;100.00
45541;BME280;31265;49.680;8.608;2023-02-12T08:59:48;102808.91;;;5.87;100.00
45541;BME280;31265;49.680;8.608;2023-02-12T09:02:16;102807.19;;;5.99;100.00
45541;BME280;31265;49.680;8.608;2023-02-12T09:04:45;102807.66;;;5.97;100.00
45541;BME280;31265;49.680;8.608;2023-02-12T09:07:14;102809.66;;;5.97;100.00
45541;BME280;31265;49.680;8.608;2023-02-12T09:09:43;102811.88;;;6.08;100.00
45541;BME280;31265;49.680;8.608;2023-02-12T09:12:11;102805.78;;;6.03;100.00
45541;BME280;31265;49.680;8.608;2023-02-12T09:14:39;102812.00;;;6.13;100.00
45541;BME280;31265;49.680;8.608;2023-02-12T09:17:08;102816.31;;;6.29;100.00
45541;BME280;31265;49.680;8.608;2023-02-12T09:19:36;102817.81;;;6.30;100.00
45541;BME280;31265;49.680;8.608;2023-02-12T09:22:05;102815.94;;;6.36;100.00
45541;BME280;31265;49.680;8.608;2023-02-12T09:24:35;102814.34;;;6.44;100.00
45541;BME280;31265;49.680;8.608;2023-02-12T09:27:04;102817.31;;;6.56;100.00
45541;BME280;31265;49.680;8.608;2023-02-12T09:29:32;102811.88;;;6.61;100.00
45541;BME280;31265;49.680;8.608;2023-02-12T09:32:01;102808.00;;;6.68;100.00
45541;BME280;31265;49.680;8.608;2023-02-12T09:34:33;102815.25;;;6.80;100.00
45541;BME280;31265;49.680;8.608;2023-02-12T09:37:02;102815.91;;;6.90;100.00
45541;BME280;31265;49.680;8.608;2023-02-12T09:39:30;102810.28;;;6.84;100.00
45541;BME280;31265;49.680;8.608;2023-02-12T09:42:17;102812.09;;;7.02;100.00
45541;BME280;31265;49.680;8.608;2023-02-12T09:44:53;102816.16;;;7.07;100.00
45541;BME280;31265;49.680;8.608;2023-02-12T09:47:31;102822.28;;;7.11;100.00
45541;BME280;31265;49.680;8.608;2023-02-12T09:50:13;102819.03;;;7.13;100.00
45541;BME280;31265;49.680;8.608;2023-02-12T09:52:45;102820.63;;;7.19;100.00
45541;BME280;31265;49.680;8.608;2023-02-12T09:55:15;102826.84;;;7.14;100.00
45541;BME280;31265;49.680;8.608;2023-02-12T09:57:48;102821.84;;;7.48;100.00
45541;BME280;31265;49.680;8.608;2023-02-12T10:00:23;102821.78;;;7.27;100.00
45541;BME280;31265;49.680;8.608;2023-02-12T10:02:54;102822.63;;;7.33;100.00
45541;BME280;31265;49.680;8.608;2023-02-12T10:05:26;102828.28;;;7.60;100.00
45541;BME280;31265;49.680;8.608;2023-02-12T10:08:11;102825.63;;;7.50;100.00
45541;BME280;31265;49.680;8.608;2023-02-12T10:10:49;102823.31;;;7.64;100.00
45541;BME280;31265;49.680;8.608;2023-02-12T10:13:30;102819.78;;;7.63;100.00
45541;BME280;31265;49.680;8.608;2023-02-12T10:16:10;102811.03;;;7.65;100.00
45541;BME280;31265;49.680;8.608;2023-02-12T10:18:52;102816.78;;;7.82;100.00
45541;BME280;31265;49.680;8.608;2023-02-12T10:24:30;102820.94;;;7.92;100.00
45541;BME280;31265;49.680;8.608;2023-02-12T10:27:08;102812.28;;;8.05;100.00
45541;BME280;31265;49.680;8.608;2023-02-12T10:29:42;102813.25;;;8.22;100.00
45541;BME280;31265;49.680;8.608;2023-02-12T10:32:18;102805.22;;;8.24;100.00
45541;BME280;31265;49.680;8.608;2023-02-12T10:34:51;102813.19;;;8.16;100.00
45541;BME280;31265;49.680;8.608;2023-02-12T10:37:25;102799.97;;;8.26;100.00
45541;BME280;31265;49.680;8.608;2023-02-12T10:39:58;102810.06;;;8.29;100.00
45541;BME280;31265;49.680;8.608;2023-02-12T10:42:35;102806.69;;;8.40;100.00
45541;BME280;31265;49.680;8.608;2023-02-12T10:45:15;102802.66;;;8.21;100.00
45541;BME280;31265;49.680;8.608;2023-02-12T10:47:46;102798.28;;;8.34;100.00
45541;BME280;31265;49.680;8.608;2023-02-12T10:50:23;102795.53;;;8.34;100.00
45541;BME280;31265;49.680;8.608;2023-02-12T10:52:55;102800.03;;;8.32;100.00
45541;BME280;31265;49.680;8.608;2023-02-12T10:55:29;102792.28;;;8.36;100.00
45541;BME280;31265;49.680;8.608;2023-02-12T10:57:59;102791.16;;;8.74;100.00
45541;BME280;31265;49.680;8.608;2023-02-12T11:00:31;102783.94;;;8.82;100.00
45541;BME280;31265;49.680;8.608;2023-02-12T11:03:03;102779.53;;;8.96;100.00
45541;BME280;31265;49.680;8.608;2023-02-12T11:05:34;102779.41;;;9.17;100.00
45541;BME280;31265;49.680;8.608;2023-02-12T11:08:04;102772.38;;;9.16;100.00
45541;BME280;31265;49.680;8.608;2023-02-12T11:10:35;102773.66;;;9.20;100.00
45541;BME280;31265;49.680;8.608;2023-02-12T11:13:05;102774.91;;;9.19;100.00
45541;BME280;31265;49.680;8.608;2023-02-12T11:15:48;102767.31;;;9.14;100.00
45541;BME280;31265;49.680;8.608;2023-02-12T11:18:21;102763.47;;;9.06;100.00
45541;BME280;31265;49.680;8.608;2023-02-12T11:20:55;102758.91;;;9.35;100.00
45541;BME280;31265;49.680;8.608;2023-02-12T11:23:26;102747.56;;;9.38;100.00
45541;BME280;31265;49.680;8.608;2023-02-12T11:25:58;102750.44;;;9.61;100.00
45541;BME280;31265;49.680;8.608;2023-02-12T11:28:28;102743.91;;;9.64;100.00
45541;BME280;31265;49.680;8.608;2023-02-12T11:31:17;102739.31;;;9.50;100.00
45541;BME280;31265;49.680;8.608;2023-02-12T11:34:06;102737.06;;;9.59;100.00
45541;BME280;31265;49.680;8.608;2023-02-12T11:36:37;102739.50;;;9.95;100.00
45541;BME280;31265;49.680;8.608;2023-02-12T11:39:18;102737.22;;;9.99;100.00
45541;BME280;31265;49.680;8.608;2023-02-12T11:41:51;102739.25;;;9.93;100.00
45541;BME280;31265;49.680;8.608;2023-02-12T11:44:23;102735.50;;;10.07;100.00
45541;BME280;31265;49.680;8.608;2023-02-12T11:46:57;102736.00;;;10.11;100.00
45541;BME280;31265;49.680;8.608;2023-02-12T11:49:30;102725.91;;;9.97;100.00
45541;BME280;31265;49.680;8.608;2023-02-12T11:52:01;102726.44;;;10.18;100.00
45541;BME280;31265;49.680;8.608;2023-02-12T11:54:35;102729.78;;;10.39;100.00
45541;BME280;31265;49.680;8.608;2023-02-12T11:57:06;102723.47;;;10.44;100.00
45541;BME280;31265;49.680;8.608;2023-02-12T11:59:40;102725.00;;;10.67;100.00
45541;BME280;31265;49.680;8.608;2023-02-12T12:02:30;102721.44;;;10.55;100.00
45541;BME280;31265;49.680;8.608;2023-02-12T12:05:07;102722.22;;;10.84;100.00
45541;BME280;31265;49.680;8.608;2023-02-12T12:07:38;102719.94;;;10.60;100.00
45541;BME280;31265;49.680;8.608;2023-02-12T12:10:13;102714.63;;;10.79;100.00
45541;BME280;31265;49.680;8.608;2023-02-12T12:12:47;102709.56;;;11.00;100.00
45541;BME280;31265;49.680;8.608;2023-02-12T12:15:21;102718.63;;;11.23;100.00
45541;BME280;31265;49.680;8.608;2023-02-12T12:18:18;102711.50;;;11.33;100.00
45541;BME280;31265;49.680;8.608;2023-02-12T12:21:12;102705.63;;;11.48;100.00
45541;BME280;31265;49.680;8.608;2023-02-12T12:23:46;102714.31;;;11.28;100.00
45541;BME280;31265;49.680;8.608;2023-02-12T12:26:21;102706.13;;;11.52;100.00
45541;BME280;31265;49.680;8.608;2023-02-12T12:28:54;102700.31;;;11.56;100.00
45541;BME280;31265;49.680;8.608;2023-02-12T12:31:30;102705.81;;;11.61;100.00
45541;BME280;31265;49.680;8.608;2023-02-12T12:34:06;102699.09;;;11.46;100.00
45541;BME280;31265;49.680;8.608;2023-02-12T12:36:51;102703.63;;;11.43;100.00
45541;BME280;31265;49.680;8.608;2023-02-12T12:39:27;102699.47;;;11.72;100.00
45541;BME280;31265;49.680;8.608;2023-02-12T12:42:18;102697.84;;;11.35;100.00
45541;BME280;31265;49.680;8.608;2023-02-12T12:45:08;102689.22;;;11.50;100.00
45541;BME280;31265;49.680;8.608;2023-02-12T12:47:53;102689.09;;;11.73;100.00
45541;BME280;31265;49.680;8.608;2023-02-12T12:50:41;102687.69;;;11.55;100.00
45541;BME280;31265;49.680;8.608;2023-02-12T12:53:27;102679.41;;;11.38;100.00
45541;BME280;31265;49.680;8.608;2023-02-12T12:56:12;102676.19;;;11.17;100.00
45541;BME280;31265;49.680;8.608;2023-02-12T12:58:55;102668.72;;;11.53;100.00
45541;BME280;31265;49.680;8.608;2023-02-12T13:02:09;102671.97;;;11.63;100.00
45541;BME280;31265;49.680;8.608;2023-02-12T13:05:20;102666.31;;;11.80;100.00
45541;BME280;31265;49.680;8.608;2023-02-12T13:08:03;102663.41;;;11.50;100.00
45541;BME280;31265;49.680;8.608;2023-02-12T13:10:35;102665.53;;;11.85;100.00
45541;BME280;31265;49.680;8.608;2023-02-12T13:13:17;102666.00;;;11.89;100.00
45541;BME280;31265;49.680;8.608;2023-02-12T13:15:54;102660.03;;;11.68;100.00
45541;BME280;31265;49.680;8.608;2023-02-12T13:18:33;102656.19;;;11.82;100.00
45541;BME280;31265;49.680;8.608;2023-02-12T13:21:10;102654.44;;;11.21;100.00